ADDS METAR Data INFO
IDs: Format: Raw Decoded Include TAF

Data at: 2008 UTC 19 Oct 2017

KNQA 191950Z 21003KT 10SM FEW250 25/10 A3019
KNQA 191850Z 21003KT 10SM FEW250 24/10 A3022
KNQA 191750Z 30003KT 10SM FEW250 23/10 A3025
KNQA 191650Z 24003KT 10SM FEW250 22/10 A3027
KNQA 191550Z 23004KT 10SM FEW250 19/10 A3028
KNQA 191450Z 18003KT 10SM FEW250 16/10 A3028
KNQA 191350Z 15004KT 10SM FEW250 12/09 A3026
KNQA 191250Z 00000KT 10SM FEW250 07/07 A3024
KNQA 191150Z 00000KT 10SM SKC 07/06 A3023
KNQA 191050Z 00000KT 10SM SKC 08/07 A3023
KNQA 191030Z 00000KT 10SM SKC 08/07 A3022
KNQA 191010Z AUTO 00000KT 10SM CLR 08/08 A3022 RMK A01
KNQA 190955Z AUTO 00000KT 10SM CLR 09/08 A3021 RMK A01
KNQA 190935Z AUTO 00000KT 10SM CLR 09/08 A3020 RMK A01
KNQA 190915Z AUTO 00000KT 10SM CLR 09/08 A3020 RMK A01
KNQA 190855Z AUTO 00000KT 10SM CLR 09/08 A3020 RMK A01
KNQA 190835Z AUTO 00000KT 10SM CLR 09/08 A3020 RMK A01
KNQA 190815Z AUTO 00000KT 10SM CLR 09/08 A3019 RMK A01
KNQA 190755Z AUTO 00000KT 10SM CLR 09/08 A3019 RMK A01
KNQA 190735Z AUTO 00000KT 10SM CLR 09/08 A3019 RMK A01
KNQA 190715Z AUTO 11003KT 10SM CLR 09/08 A3019 RMK A01
KNQA 190655Z AUTO 12003KT 10SM CLR 10/08 A3019 RMK A01
KNQA 190650Z 00000KT 10SM SKC 09/08 A3019
KNQA 190550Z 00000KT 10SM SKC 10/09 A3019
KNQA 190450Z 00000KT 10SM SKC 11/09 A3019
KNQA 190350Z 00000KT 10SM SKC 10/08 A3019
KNQA 190250Z 10003KT 10SM SKC 13/09 A3019
KNQA 190150Z 13003KT 10SM FEW250 13/09 A3019
KNQA 190050Z 14003KT 10SM FEW250 14/10 A3019
KNQA 182350Z 14003KT 10SM FEW250 16/10 A3018
KNQA 182250Z 14003KT 10SM FEW250 21/09 A3018
KNQA 182150Z 17007KT 10SM FEW250 22/08 A3018
KNQA 182050Z 17007KT 10SM SKC 23/08 A3018
KNQA 181950Z 15005KT 10SM SKC 23/09 A3019
KNQA 181850Z 17005KT 10SM SKC 22/09 A3021
KNQA 181750Z 19010KT 10SM SKC 21/09 A3024
KNQA 181650Z 22008KT 10SM SKC 20/09 A3027
KNQA 181550Z 15009KT 10SM SKC 19/09 A3028
KNQA 181450Z 16007KT 10SM SKC 16/11 A3028
KNQA 181350Z 13003KT 10SM SKC 12/09 A3026
KNQA 181250Z 00000KT 10SM SKC 07/06 A3025
KNQA 181150Z 00000KT 10SM SKC 07/06 A3024
KNQA 181050Z 00000KT 10SM SKC 07/07 A3024
KNQA 181030Z 00000KT 10SM SKC 07/07 A3023
KNQA 181010Z AUTO 00000KT 10SM CLR 07/06 A3023 RMK A01
KNQA 180955Z AUTO 00000KT 10SM 07/06 A3023 RMK A01
KNQA 180935Z AUTO 00000KT 10SM 07/07 A3022 RMK A01
KNQA 180915Z AUTO 00000KT 10SM CLR 07/07 A3022 RMK A01
KNQA 180855Z AUTO 00000KT 8SM FEW020 08/08 A3022 RMK A01
KNQA 180835Z AUTO 00000KT 3SM BR CLR 09/08 A3023 RMK A01
KNQA 180815Z AUTO 00000KT 10SM CLR 09/08 A3022 RMK A01